sensor_id;sensor_type;location;lat;lon;timestamp;pressure;altitude;pressure_sealevel;temperature;humidity
53246;BME280;39569;51.090;-1.786;2023-06-19T00:00:27;100233.69;;;25.21;48.00
53246;BME280;39569;51.090;-1.786;2023-06-19T00:02:55;100235.06;;;25.24;48.00
53246;BME280;39569;51.090;-1.786;2023-06-19T00:05:22;100231.56;;;25.13;48.19
53246;BME280;39569;51.090;-1.786;2023-06-19T00:07:50;100237.53;;;25.20;47.84
53246;BME280;39569;51.090;-1.786;2023-06-19T00:10:17;100236.47;;;25.16;47.84
53246;BME280;39569;51.090;-1.786;2023-06-19T00:12:45;100239.72;;;25.18;47.95
53246;BME280;39569;51.090;-1.786;2023-06-19T00:15:12;100236.47;;;25.16;47.96
53246;BME280;39569;51.090;-1.786;2023-06-19T00:17:38;100247.09;;;25.18;48.06
53246;BME280;39569;51.090;-1.786;2023-06-19T00:20:07;100241.59;;;25.28;47.82
53246;BME280;39569;51.090;-1.786;2023-06-19T00:22:35;100246.00;;;25.24;47.89
53246;BME280;39569;51.090;-1.786;2023-06-19T00:25:01;100245.75;;;25.20;47.87
53246;BME280;39569;51.090;-1.786;2023-06-19T00:27:28;100246.28;;;25.22;47.67
53246;BME280;39569;51.090;-1.786;2023-06-19T00:29:56;100257.25;;;25.17;47.39
53246;BME280;39569;51.090;-1.786;2023-06-19T00:32:27;100249.13;;;25.02;47.65
53246;BME280;39569;51.090;-1.786;2023-06-19T00:34:53;100257.25;;;25.12;47.67
53246;BME280;39569;51.090;-1.786;2023-06-19T00:37:20;100255.09;;;25.09;47.56
53246;BME280;39569;51.090;-1.786;2023-06-19T00:39:47;100258.63;;;25.15;47.78
53246;BME280;39569;51.090;-1.786;2023-06-19T00:42:14;100264.13;;;25.05;47.63
53246;BME280;39569;51.090;-1.786;2023-06-19T00:44:40;100260.09;;;24.92;47.71
53246;BME280;39569;51.090;-1.786;2023-06-19T00:47:10;100262.00;;;24.97;47.55
53246;BME280;39569;51.090;-1.786;2023-06-19T00:49:37;100260.34;;;25.01;47.87
53246;BME280;39569;51.090;-1.786;2023-06-19T00:52:04;100263.31;;;24.99;47.60
53246;BME280;39569;51.090;-1.786;2023-06-19T00:54:31;100257.31;;;25.02;47.72
53246;BME280;39569;51.090;-1.786;2023-06-19T00:56:59;100264.44;;;24.98;47.59
53246;BME280;39569;51.090;-1.786;2023-06-19T00:59:26;100260.94;;;24.83;47.76
53246;BME280;39569;51.090;-1.786;2023-06-19T01:01:54;100260.41;;;24.81;47.93
53246;BME280;39569;51.090;-1.786;2023-06-19T01:04:22;100259.53;;;24.90;47.73
53246;BME280;39569;51.090;-1.786;2023-06-19T01:06:53;100266.94;;;24.90;47.62
53246;BME280;39569;51.090;-1.786;2023-06-19T01:09:27;100262.34;;;24.80;47.77
53246;BME280;39569;51.090;-1.786;2023-06-19T01:11:59;100265.06;;;24.75;47.72
53246;BME280;39569;51.090;-1.786;2023-06-19T01:14:35;100253.09;;;24.71;47.99
53246;BME280;39569;51.090;-1.786;2023-06-19T01:17:03;100247.63;;;24.71;47.79
53246;BME280;39569;51.090;-1.786;2023-06-19T01:19:31;100245.94;;;24.70;47.68
53246;BME280;39569;51.090;-1.786;2023-06-19T01:22:02;100246.50;;;24.67;47.69
53246;BME280;39569;51.090;-1.786;2023-06-19T01:24:29;100239.97;;;24.58;47.67
53246;BME280;39569;51.090;-1.786;2023-06-19T01:26:56;100239.16;;;24.58;47.54
53246;BME280;39569;51.090;-1.786;2023-06-19T01:29:23;100240.00;;;24.48;47.36
53246;BME280;39569;51.090;-1.786;2023-06-19T01:31:54;100242.16;;;24.51;47.21
53246;BME280;39569;51.090;-1.786;2023-06-19T01:34:26;100246.81;;;24.46;47.42
53246;BME280;39569;51.090;-1.786;2023-06-19T01:36:54;100247.41;;;24.38;47.44
53246;BME280;39569;51.090;-1.786;2023-06-19T01:39:24;100242.50;;;24.29;47.68
53246;BME280;39569;51.090;-1.786;2023-06-19T01:41:52;100248.75;;;24.40;47.74
53246;BME280;39569;51.090;-1.786;2023-06-19T01:44:20;100251.75;;;24.38;47.61
53246;BME280;39569;51.090;-1.786;2023-06-19T01:46:47;100258.56;;;24.46;47.75
53246;BME280;39569;51.090;-1.786;2023-06-19T01:49:15;100252.06;;;24.32;47.74
53246;BME280;39569;51.090;-1.786;2023-06-19T01:51:42;100263.53;;;24.19;48.06
53246;BME280;39569;51.090;-1.786;2023-06-19T01:54:09;100255.06;;;24.30;47.90
53246;BME280;39569;51.090;-1.786;2023-06-19T01:56:38;100253.94;;;24.47;48.04
53246;BME280;39569;51.090;-1.786;2023-06-19T01:59:05;100249.31;;;24.47;47.66
53246;BME280;39569;51.090;-1.786;2023-06-19T02:01:32;100257.50;;;24.47;47.63
53246;BME280;39569;51.090;-1.786;2023-06-19T02:03:59;100256.97;;;24.30;48.07
53246;BME280;39569;51.090;-1.786;2023-06-19T02:06:25;100258.63;;;24.16;47.68
53246;BME280;39569;51.090;-1.786;2023-06-19T02:08:52;100257.81;;;23.95;48.52
53246;BME280;39569;51.090;-1.786;2023-06-19T02:11:19;100255.88;;;23.96;48.44
53246;BME280;39569;51.090;-1.786;2023-06-19T02:13:47;100253.97;;;23.91;48.84
53246;BME280;39569;51.090;-1.786;2023-06-19T02:16:14;100253.72;;;23.88;48.71
53246;BME280;39569;51.090;-1.786;2023-06-19T02:18:41;100250.44;;;23.86;48.75
53246;BME280;39569;51.090;-1.786;2023-06-19T02:21:07;100257.81;;;23.95;48.57
53246;BME280;39569;51.090;-1.786;2023-06-19T02:23:34;100248.78;;;23.80;49.04
53246;BME280;39569;51.090;-1.786;2023-06-19T02:26:01;100251.50;;;23.85;49.08
53246;BME280;39569;51.090;-1.786;2023-06-19T02:28:28;100258.88;;;23.89;48.66
53246;BME280;39569;51.090;-1.786;2023-06-19T02:30:56;100260.25;;;23.87;49.04
53246;BME280;39569;51.090;-1.786;2023-06-19T02:33:23;100264.06;;;23.91;49.29
53246;BME280;39569;51.090;-1.786;2023-06-19T02:35:50;100263.78;;;23.92;49.34
53246;BME280;39569;51.090;-1.786;2023-06-19T02:38:17;100268.16;;;23.88;49.58
53246;BME280;39569;51.090;-1.786;2023-06-19T02:40:46;100276.06;;;23.95;49.70
53246;BME280;39569;51.090;-1.786;2023-06-19T02:43:13;100278.56;;;24.06;49.56
53246;BME280;39569;51.090;-1.786;2023-06-19T02:45:41;100281.81;;;23.98;49.72
53246;BME280;39569;51.090;-1.786;2023-06-19T02:48:09;100286.44;;;23.93;50.08
53246;BME280;39569;51.090;-1.786;2023-06-19T02:50:36;100297.78;;;23.34;51.97
53246;BME280;39569;51.090;-1.786;2023-06-19T02:53:03;100291.63;;;23.74;51.07
53246;BME280;39569;51.090;-1.786;2023-06-19T02:55:30;100283.97;;;23.76;50.78
53246;BME280;39569;51.090;-1.786;2023-06-19T02:57:56;100294.06;;;23.81;51.00
53246;BME280;39569;51.090;-1.786;2023-06-19T03:00:23;100290.78;;;23.94;50.77
53246;BME280;39569;51.090;-1.786;2023-06-19T03:02:50;100307.69;;;23.81;50.49
53246;BME280;39569;51.090;-1.786;2023-06-19T03:05:18;100307.69;;;23.81;50.94
53246;BME280;39569;51.090;-1.786;2023-06-19T03:07:45;100309.34;;;23.87;50.88
53246;BME280;39569;51.090;-1.786;2023-06-19T03:10:12;100313.72;;;23.98;50.56
53246;BME280;39569;51.090;-1.786;2023-06-19T03:12:39;100310.47;;;24.16;50.37
53246;BME280;39569;51.090;-1.786;2023-06-19T03:15:06;100303.94;;;24.32;49.88
53246;BME280;39569;51.090;-1.786;2023-06-19T03:17:33;100302.53;;;24.34;49.87
53246;BME280;39569;51.090;-1.786;2023-06-19T03:20:00;100309.38;;;24.47;49.89
53246;BME280;39569;51.090;-1.786;2023-06-19T03:22:28;100312.38;;;24.41;50.29
53246;BME280;39569;51.090;-1.786;2023-06-19T03:24:55;100318.91;;;24.50;50.03
53246;BME280;39569;51.090;-1.786;2023-06-19T03:27:21;100314.84;;;24.37;50.73
53246;BME280;39569;51.090;-1.786;2023-06-19T03:29:50;100319.72;;;24.60;50.32
53246;BME280;39569;51.090;-1.786;2023-06-19T03:32:16;100326.84;;;24.71;50.11
53246;BME280;39569;51.090;-1.786;2023-06-19T03:34:44;100322.72;;;24.74;49.74
53246;BME280;39569;51.090;-1.786;2023-06-19T03:37:11;100323.25;;;24.61;50.36
53246;BME280;39569;51.090;-1.786;2023-06-19T03:39:39;100321.91;;;24.63;50.38
53246;BME280;39569;51.090;-1.786;2023-06-19T03:42:07;100316.97;;;24.75;50.15
53246;BME280;39569;51.090;-1.786;2023-06-19T03:44:34;100315.63;;;24.58;50.54
53246;BME280;39569;51.090;-1.786;2023-06-19T03:47:01;100317.81;;;24.66;50.51
53246;BME280;39569;51.090;-1.786;2023-06-19T03:49:27;100323.03;;;24.47;51.17
53246;BME280;39569;51.090;-1.786;2023-06-19T03:51:54;100330.66;;;24.60;51.03
53246;BME280;39569;51.090;-1.786;2023-06-19T03:54:21;100338.28;;;24.53;51.16
53246;BME280;39569;51.090;-1.786;2023-06-19T03:56:49;100337.72;;;24.86;51.03
53246;BME280;39569;51.090;-1.786;2023-06-19T03:59:16;100335.78;;;24.92;50.74
53246;BME280;39569;51.090;-1.786;2023-06-19T04:01:43;100334.41;;;24.94;51.00
53246;BME280;39569;51.090;-1.786;2023-06-19T04:04:10;100336.88;;;24.91;51.17
53246;BME280;39569;51.090;-1.786;2023-06-19T04:06:37;100335.72;;;25.07;51.04
53246;BME280;39569;51.090;-1.786;2023-06-19T04:09:03;100340.41;;;25.06;51.28
53246;BME280;39569;51.090;-1.786;2023-06-19T04:11:30;100327.50;;;25.17;50.83
53246;BME280;39569;51.090;-1.786;2023-06-19T04:13:59;100337.03;;;25.24;51.08
53246;BME280;39569;51.090;-1.786;2023-06-19T04:16:25;100319.00;;;25.18;51.45
53246;BME280;39569;51.090;-1.786;2023-06-19T04:18:52;100324.66;;;25.37;51.28
53246;BME280;39569;51.090;-1.786;2023-06-19T04:21:19;100330.97;;;25.43;50.61
53246;BME280;39569;51.090;-1.786;2023-06-19T04:23:45;100333.41;;;25.44;51.25
53246;BME280;39569;51.090;-1.786;2023-06-19T04:26:12;100335.84;;;25.46;51.40
53246;BME280;39569;51.090;-1.786;2023-06-19T04:28:39;100339.66;;;25.50;51.18
53246;BME280;39569;51.090;-1.786;2023-06-19T04:31:08;100340.97;;;25.67;50.45
53246;BME280;39569;51.090;-1.786;2023-06-19T04:33:35;100341.59;;;25.54;50.77
53246;BME280;39569;51.090;-1.786;2023-06-19T04:36:02;100339.84;;;25.73;50.86
53246;BME280;39569;51.090;-1.786;2023-06-19T04:38:29;100341.75;;;25.68;50.67
53246;BME280;39569;51.090;-1.786;2023-06-19T04:40:55;100341.16;;;25.76;50.74
53246;BME280;39569;51.090;-1.786;2023-06-19T04:43:22;100341.69;;;25.78;50.56
53246;BME280;39569;51.090;-1.786;2023-06-19T04:45:50;100341.59;;;25.93;50.22
53246;BME280;39569;51.090;-1.786;2023-06-19T04:48:18;100349.22;;;25.96;50.68
53246;BME280;39569;51.090;-1.786;2023-06-19T04:50:45;100345.03;;;25.70;50.90
53246;BME280;39569;51.090;-1.786;2023-06-19T04:53:11;100349.41;;;25.71;50.68
53246;BME280;39569;51.090;-1.786;2023-06-19T04:55:38;100347.03;;;25.98;50.40
53246;BME280;39569;51.090;-1.786;2023-06-19T04:58:05;100355.25;;;25.98;51.00
53246;BME280;39569;51.090;-1.786;2023-06-19T05:00:31;100363.38;;;26.13;49.89
53246;BME280;39569;51.090;-1.786;2023-06-19T05:02:58;100352.78;;;26.35;49.63
53246;BME280;39569;51.090;-1.786;2023-06-19T05:05:28;100363.00;;;25.81;50.55
53246;BME280;39569;51.090;-1.786;2023-06-19T05:07:54;100357.63;;;26.14;49.69
53246;BME280;39569;51.090;-1.786;2023-06-19T05:10:21;100363.91;;;26.15;50.11
53246;BME280;39569;51.090;-1.786;2023-06-19T05:12:48;100367.50;;;26.44;49.26
53246;BME280;39569;51.090;-1.786;2023-06-19T05:15:15;100366.06;;;26.23;50.33
53246;BME280;39569;51.090;-1.786;2023-06-19T05:17:41;100365.13;;;25.94;50.75
53246;BME280;39569;51.090;-1.786;2023-06-19T05:20:13;100369.00;;;26.32;49.86
53246;BME280;39569;51.090;-1.786;2023-06-19T05:22:42;100368.81;;;26.52;49.55
53246;BME280;39569;51.090;-1.786;2023-06-19T05:25:09;100370.22;;;26.49;48.95
53246;BME280;39569;51.090;-1.786;2023-06-19T05:27:36;100368.59;;;25.66;50.18
53246;BME280;39569;51.090;-1.786;2023-06-19T05:30:03;100370.88;;;25.92;50.46
53246;BME280;39569;51.090;-1.786;2023-06-19T05:32:30;100368.25;;;26.21;49.36
53246;BME280;39569;51.090;-1.786;2023-06-19T05:34:57;100367.50;;;26.44;48.47
53246;BME280;39569;51.090;-1.786;2023-06-19T05:37:24;100355.25;;;26.37;49.23
53246;BME280;39569;51.090;-1.786;2023-06-19T05:39:53;100359.09;;;26.64;48.54
53246;BME280;39569;51.090;-1.786;2023-06-19T05:42:20;100365.16;;;26.61;48.65
53246;BME280;39569;51.090;-1.786;2023-06-19T05:44:47;100365.50;;;26.83;48.10
53246;BME280;39569;51.090;-1.786;2023-06-19T05:47:13;100363.63;;;26.79;48.19
53246;BME280;39569;51.090;-1.786;2023-06-19T05:49:42;100360.56;;;26.85;48.43
53246;BME280;39569;51.090;-1.786;2023-06-19T05:52:09;100363.69;;;26.74;48.57
53246;BME280;39569;51.090;-1.786;2023-06-19T05:54:35;100361.41;;;26.81;47.97
53246;BME280;39569;51.090;-1.786;2023-06-19T05:57:04;100361.38;;;27.09;47.48
53246;BME280;39569;51.090;-1.786;2023-06-19T05:59:31;100364.66;;;26.88;47.97
53246;BME280;39569;51.090;-1.786;2023-06-19T06:01:58;100363.59;;;27.07;48.29
53246;BME280;39569;51.090;-1.786;2023-06-19T06:04:25;100357.28;;;27.07;48.56
53246;BME280;39569;51.090;-1.786;2023-06-19T06:06:52;100357.94;;;27.23;48.22
53246;BME280;39569;51.090;-1.786;2023-06-19T06:09:18;100353.63;;;27.40;47.54
53246;BME280;39569;51.090;-1.786;2023-06-19T06:11:46;100347.31;;;27.16;47.92
53246;BME280;39569;51.090;-1.786;2023-06-19T06:14:14;100347.44;;;27.30;47.99
53246;BME280;39569;51.090;-1.786;2023-06-19T06:16:40;100340.56;;;27.32;47.99
53246;BME280;39569;51.090;-1.786;2023-06-19T06:19:07;100341.66;;;27.07;48.02
53246;BME280;39569;51.090;-1.786;2023-06-19T06:21:34;100344.72;;;26.82;47.58
53246;BME280;39569;51.090;-1.786;2023-06-19T06:24:01;100341.78;;;27.45;46.74
53246;BME280;39569;51.090;-1.786;2023-06-19T06:26:28;100347.09;;;27.55;46.22
53246;BME280;39569;51.090;-1.786;2023-06-19T06:28:54;100347.25;;;27.45;46.24
53246;BME280;39569;51.090;-1.786;2023-06-19T06:31:23;100340.66;;;27.64;46.02
53246;BME280;39569;51.090;-1.786;2023-06-19T06:33:50;100347.44;;;27.06;47.29
53246;BME280;39569;51.090;-1.786;2023-06-19T06:36:17;100351.81;;;27.54;46.85
53246;BME280;39569;51.090;-1.786;2023-06-19T06:38:44;100357.34;;;27.68;46.51
53246;BME280;39569;51.090;-1.786;2023-06-19T06:41:11;100353.28;;;27.47;46.51
53246;BME280;39569;51.090;-1.786;2023-06-19T06:43:39;100354.31;;;27.03;46.77
53246;BME280;39569;51.090;-1.786;2023-06-19T06:46:08;100352.47;;;27.83;46.06
53246;BME280;39569;51.090;-1.786;2023-06-19T06:48:36;100361.75;;;27.69;46.24
53246;BME280;39569;51.090;-1.786;2023-06-19T06:51:03;100361.44;;;27.52;46.05
53246;BME280;39569;51.090;-1.786;2023-06-19T06:53:30;100360.94;;;27.87;45.75
53246;BME280;39569;51.090;-1.786;2023-06-19T06:55:57;100372.22;;;27.85;45.61
53246;BME280;39569;51.090;-1.786;2023-06-19T06:58:25;100374.00;;;27.76;45.74
53246;BME280;39569;51.090;-1.786;2023-06-19T07:00:51;100374.09;;;27.71;45.93
53246;BME280;39569;51.090;-1.786;2023-06-19T07:03:18;100389.34;;;27.11;47.01
53246;BME280;39569;51.090;-1.786;2023-06-19T07:05:47;100386.81;;;27.62;46.30
53246;BME280;39569;51.090;-1.786;2023-06-19T07:08:13;100385.28;;;27.75;45.67
53246;BME280;39569;51.090;-1.786;2023-06-19T07:10:40;100371.78;;;28.34;45.00
53246;BME280;39569;51.090;-1.786;2023-06-19T07:13:07;100372.22;;;28.23;45.47
53246;BME280;39569;51.090;-1.786;2023-06-19T07:15:34;100371.06;;;28.10;44.97
53246;BME280;39569;51.090;-1.786;2023-06-19T07:18:00;100366.94;;;28.26;45.61
53246;BME280;39569;51.090;-1.786;2023-06-19T07:20:27;100365.38;;;28.71;45.19
53246;BME280;39569;51.090;-1.786;2023-06-19T07:22:55;100373.47;;;29.22;43.56
53246;BME280;39569;51.090;-1.786;2023-06-19T07:25:22;100382.59;;;28.76;43.15
53246;BME280;39569;51.090;-1.786;2023-06-19T07:27:50;100378.31;;;28.70;43.59
53246;BME280;39569;51.090;-1.786;2023-06-19T07:30:17;100385.22;;;28.49;44.13
53246;BME280;39569;51.090;-1.786;2023-06-19T07:32:44;100392.19;;;28.28;43.99
53246;BME280;39569;51.090;-1.786;2023-06-19T07:35:11;100393.56;;;28.12;44.21
53246;BME280;39569;51.090;-1.786;2023-06-19T07:37:38;100394.22;;;28.04;44.33
53246;BME280;39569;51.090;-1.786;2023-06-19T07:40:07;100402.75;;;28.21;44.04
53246;BME280;39569;51.090;-1.786;2023-06-19T07:42:34;100404.88;;;28.24;44.36
53246;BME280;39569;51.090;-1.786;2023-06-19T07:45:01;100405.50;;;27.79;44.94
53246;BME280;39569;51.090;-1.786;2023-06-19T07:47:28;100405.56;;;28.16;44.40
53246;BME280;39569;51.090;-1.786;2023-06-19T07:49:55;100400.03;;;28.53;44.23
53246;BME280;39569;51.090;-1.786;2023-06-19T07:52:22;100420.72;;;27.95;44.64
53246;BME280;39569;51.090;-1.786;2023-06-19T07:54:51;100410.16;;;27.41;45.66
53246;BME280;39569;51.090;-1.786;2023-06-19T07:57:20;100410.47;;;28.19;44.21
53246;BME280;39569;51.090;-1.786;2023-06-19T07:59:47;100405.31;;;28.95;43.65
53246;BME280;39569;51.090;-1.786;2023-06-19T08:02:14;100412.38;;;28.56;42.68
53246;BME280;39569;51.090;-1.786;2023-06-19T08:04:41;100395.84;;;29.01;42.48
53246;BME280;39569;51.090;-1.786;2023-06-19T08:07:08;100392.84;;;29.71;40.77
53246;BME280;39569;51.090;-1.786;2023-06-19T08:09:35;100390.84;;;30.56;41.43
53246;BME280;39569;51.090;-1.786;2023-06-19T08:12:02;100392.75;;;31.09;39.41
53246;BME280;39569;51.090;-1.786;2023-06-19T08:14:30;100391.91;;;31.39;38.11
53246;BME280;39569;51.090;-1.786;2023-06-19T08:16:57;100388.88;;;31.49;38.47
53246;BME280;39569;51.090;-1.786;2023-06-19T08:19:24;100384.91;;;30.71;38.92
53246;BME280;39569;51.090;-1.786;2023-06-19T08:21:51;100399.47;;;29.70;41.51
53246;BME280;39569;51.090;-1.786;2023-06-19T08:24:17;100408.97;;;29.23;41.60
53246;BME280;39569;51.090;-1.786;2023-06-19T08:26:44;100409.75;;;28.64;42.20
53246;BME280;39569;51.090;-1.786;2023-06-19T08:29:11;100411.13;;;28.80;41.59
53246;BME280;39569;51.090;-1.786;2023-06-19T08:31:39;100405.44;;;29.04;41.37
53246;BME280;39569;51.090;-1.786;2023-06-19T08:34:06;100401.88;;;30.34;39.74
53246;BME280;39569;51.090;-1.786;2023-06-19T08:36:34;100406.31;;;31.27;38.17
53246;BME280;39569;51.090;-1.786;2023-06-19T08:39:02;100403.09;;;31.90;37.84
53246;BME280;39569;51.090;-1.786;2023-06-19T08:41:29;100408.34;;;30.60;37.79
53246;BME280;39569;51.090;-1.786;2023-06-19T08:43:55;100415.25;;;31.33;37.33
53246;BME280;39569;51.090;-1.786;2023-06-19T08:46:23;100405.34;;;30.92;37.06
53246;BME280;39569;51.090;-1.786;2023-06-19T08:48:54;100414.34;;;32.02;35.85
53246;BME280;39569;51.090;-1.786;2023-06-19T08:51:21;100417.59;;;31.39;37.05
53246;BME280;39569;51.090;-1.786;2023-06-19T08:53:54;100418.28;;;30.61;38.31
53246;BME280;39569;51.090;-1.786;2023-06-19T08:56:21;100407.28;;;31.23;36.20
53246;BME280;39569;51.090;-1.786;2023-06-19T08:58:48;100407.38;;;31.09;37.00
53246;BME280;39569;51.090;-1.786;2023-06-19T09:01:17;100413.50;;;30.53;38.22
53246;BME280;39569;51.090;-1.786;2023-06-19T09:03:45;100412.31;;;30.68;38.54
53246;BME280;39569;51.090;-1.786;2023-06-19T09:06:16;100416.69;;;29.89;39.33
53246;BME280;39569;51.090;-1.786;2023-06-19T09:08:42;100412.75;;;30.83;38.43
53246;BME280;39569;51.090;-1.786;2023-06-19T09:11:11;100412.25;;;30.81;38.05
53246;BME280;39569;51.090;-1.786;2023-06-19T09:13:38;100415.72;;;30.43;38.41
53246;BME280;39569;51.090;-1.786;2023-06-19T09:16:06;100411.22;;;30.47;38.81
53246;BME280;39569;51.090;-1.786;2023-06-19T09:18:42;100415.06;;;30.46;38.07
53246;BME280;39569;51.090;-1.786;2023-06-19T09:21:16;100416.88;;;30.94;39.04
53246;BME280;39569;51.090;-1.786;2023-06-19T09:23:43;100410.34;;;31.60;36.28
53246;BME280;39569;51.090;-1.786;2023-06-19T09:26:10;100419.28;;;31.66;36.87
53246;BME280;39569;51.090;-1.786;2023-06-19T09:28:40;100409.31;;;31.39;36.70
53246;BME280;39569;51.090;-1.786;2023-06-19T09:31:07;100410.53;;;31.64;36.37
53246;BME280;39569;51.090;-1.786;2023-06-19T09:33:35;100409.16;;;32.01;35.37
53246;BME280;39569;51.090;-1.786;2023-06-19T09:36:03;100409.53;;;31.77;36.36
53246;BME280;39569;51.090;-1.786;2023-06-19T09:38:33;100406.53;;;32.04;35.22
53246;BME280;39569;51.090;-1.786;2023-06-19T09:41:01;100407.78;;;31.81;35.58
53246;BME280;39569;51.090;-1.786;2023-06-19T09:43:32;100398.06;;;31.92;35.00
53246;BME280;39569;51.090;-1.786;2023-06-19T09:46:00;100402.31;;;31.90;35.67
53246;BME280;39569;51.090;-1.786;2023-06-19T09:48:29;100404.03;;;31.77;35.33
53246;BME280;39569;51.090;-1.786;2023-06-19T09:51:01;100392.41;;;33.12;33.93
53246;BME280;39569;51.090;-1.786;2023-06-19T09:53:29;100392.22;;;33.54;32.76
53246;BME280;39569;51.090;-1.786;2023-06-19T09:55:58;100395.16;;;32.31;34.02
53246;BME280;39569;51.090;-1.786;2023-06-19T09:58:26;100397.19;;;33.32;32.35
53246;BME280;39569;51.090;-1.786;2023-06-19T10:00:54;100384.94;;;33.41;31.95
53246;BME280;39569;51.090;-1.786;2023-06-19T10:03:30;100389.59;;;33.58;32.04
53246;BME280;39569;51.090;-1.786;2023-06-19T10:05:58;100388.03;;;33.98;31.29
53246;BME280;39569;51.090;-1.786;2023-06-19T10:08:30;100397.09;;;34.40;31.02
53246;BME280;39569;51.090;-1.786;2023-06-19T10:10:58;100391.66;;;33.32;31.99
53246;BME280;39569;51.090;-1.786;2023-06-19T10:13:32;100396.44;;;33.14;32.66
53246;BME280;39569;51.090;-1.786;2023-06-19T10:15:59;100404.88;;;32.71;33.13
53246;BME280;39569;51.090;-1.786;2023-06-19T10:18:26;100406.66;;;32.42;31.96
53246;BME280;39569;51.090;-1.786;2023-06-19T10:20:54;100401.59;;;33.33;31.71
53246;BME280;39569;51.090;-1.786;2023-06-19T10:23:22;100406.97;;;32.83;32.88
53246;BME280;39569;51.090;-1.786;2023-06-19T10:25:56;100396.25;;;33.86;31.97
53246;BME280;39569;51.090;-1.786;2023-06-19T10:28:25;100403.09;;;34.09;32.43
53246;BME280;39569;51.090;-1.786;2023-06-19T10:30:53;100400.19;;;33.18;31.43
53246;BME280;39569;51.090;-1.786;2023-06-19T10:33:20;100411.72;;;32.31;32.02
53246;BME280;39569;51.090;-1.786;2023-06-19T10:35:47;100409.13;;;33.24;30.41
53246;BME280;39569;51.090;-1.786;2023-06-19T10:38:14;100408.25;;;33.69;30.56
53246;BME280;39569;51.090;-1.786;2023-06-19T10:40:42;100416.09;;;33.88;31.08
53246;BME280;39569;51.090;-1.786;2023-06-19T10:43:09;100405.44;;;34.60;29.00
53246;BME280;39569;51.090;-1.786;2023-06-19T10:45:37;100402.63;;;33.57;29.28
53246;BME280;39569;51.090;-1.786;2023-06-19T10:48:05;100396.34;;;33.02;31.39
53246;BME280;39569;51.090;-1.786;2023-06-19T10:50:34;100403.38;;;32.91;31.90
53246;BME280;39569;51.090;-1.786;2023-06-19T10:53:01;100403.97;;;31.43;34.41
53246;BME280;39569;51.090;-1.786;2023-06-19T10:55:28;100406.78;;;31.60;34.47
53246;BME280;39569;51.090;-1.786;2023-06-19T10:57:55;100404.56;;;31.96;33.34
53246;BME280;39569;51.090;-1.786;2023-06-19T11:00:23;100393.28;;;32.95;32.86
53246;BME280;39569;51.090;-1.786;2023-06-19T11:02:52;100387.09;;;33.65;31.00
53246;BME280;39569;51.090;-1.786;2023-06-19T11:05:20;100380.38;;;33.95;30.83
53246;BME280;39569;51.090;-1.786;2023-06-19T11:07:51;100395.41;;;33.27;30.94
53246;BME280;39569;51.090;-1.786;2023-06-19T11:10:22;100387.47;;;33.84;29.65
53246;BME280;39569;51.090;-1.786;2023-06-19T11:12:50;100383.97;;;33.96;29.70
53246;BME280;39569;51.090;-1.786;2023-06-19T11:15:17;100381.16;;;35.14;28.45
53246;BME280;39569;51.090;-1.786;2023-06-19T11:17:43;100375.06;;;34.43;29.42
53246;BME280;39569;51.090;-1.786;2023-06-19T11:20:12;100385.09;;;33.95;29.63
53246;BME280;39569;51.090;-1.786;2023-06-19T11:22:41;100375.78;;;35.94;29.84
53246;BME280;39569;51.090;-1.786;2023-06-19T11:25:09;100380.38;;;36.14;26.72
53246;BME280;39569;51.090;-1.786;2023-06-19T11:27:39;100392.56;;;35.97;27.12
53246;BME280;39569;51.090;-1.786;2023-06-19T11:30:07;100380.47;;;33.20;29.34
53246;BME280;39569;51.090;-1.786;2023-06-19T11:32:35;100376.19;;;34.63;27.95
53246;BME280;39569;51.090;-1.786;2023-06-19T11:35:08;100384.97;;;35.82;28.92
53246;BME280;39569;51.090;-1.786;2023-06-19T11:37:36;100376.88;;;36.17;26.86
53246;BME280;39569;51.090;-1.786;2023-06-19T11:40:04;100397.41;;;36.52;26.23
53246;BME280;39569;51.090;-1.786;2023-06-19T11:42:48;100394.00;;;36.59;25.23
53246;BME280;39569;51.090;-1.786;2023-06-19T11:45:15;100393.06;;;36.27;24.68
53246;BME280;39569;51.090;-1.786;2023-06-19T11:47:43;100385.97;;;36.41;26.43
53246;BME280;39569;51.090;-1.786;2023-06-19T11:50:11;100383.50;;;36.95;24.38
53246;BME280;39569;51.090;-1.786;2023-06-19T11:52:42;100389.13;;;35.76;26.72
53246;BME280;39569;51.090;-1.786;2023-06-19T11:55:10;100387.72;;;36.34;25.14
53246;BME280;39569;51.090;-1.786;2023-06-19T11:57:38;100381.94;;;36.39;25.35
53246;BME280;39569;51.090;-1.786;2023-06-19T12:00:13;100380.22;;;35.34;26.49
53246;BME280;39569;51.090;-1.786;2023-06-19T12:02:40;100386.28;;;34.80;27.18
53246;BME280;39569;51.090;-1.786;2023-06-19T12:05:08;100384.88;;;34.41;27.23
53246;BME280;39569;51.090;-1.786;2023-06-19T12:07:36;100383.22;;;34.60;27.51
53246;BME280;39569;51.090;-1.786;2023-06-19T12:10:05;100376.75;;;35.25;28.46
53246;BME280;39569;51.090;-1.786;2023-06-19T12:12:35;100379.91;;;34.14;27.89
53246;BME280;39569;51.090;-1.786;2023-06-19T12:15:04;100375.81;;;33.91;28.03
53246;BME280;39569;51.090;-1.786;2023-06-19T12:17:31;100382.16;;;34.53;27.47
53246;BME280;39569;51.090;-1.786;2023-06-19T12:19:58;100373.06;;;35.09;26.99
53246;BME280;39569;51.090;-1.786;2023-06-19T12:22:25;100371.06;;;35.82;26.23
53246;BME280;39569;51.090;-1.786;2023-06-19T12:24:52;100385.59;;;34.83;26.99
53246;BME280;39569;51.090;-1.786;2023-06-19T12:27:20;100391.03;;;33.85;28.19
53246;BME280;39569;51.090;-1.786;2023-06-19T12:29:47;100384.63;;;33.34;29.27
53246;BME280;39569;51.090;-1.786;2023-06-19T12:32:14;100381.75;;;33.60;29.17
53246;BME280;39569;51.090;-1.786;2023-06-19T12:34:41;100382.13;;;33.50;29.37
53246;BME280;39569;51.090;-1.786;2023-06-19T12:37:11;100392.94;;;33.34;28.79
53246;BME280;39569;51.090;-1.786;2023-06-19T12:39:40;100382.56;;;34.63;27.95
53246;BME280;39569;51.090;-1.786;2023-06-19T12:42:07;100393.28;;;33.91;27.95